createdAt,value
2022-10-19T11:31:29.748Z,43.00
2022-10-19T11:31:59.159Z,43.00
2022-10-19T11:32:29.787Z,40.00
2022-10-19T11:33:00.205Z,38.00
2022-10-19T11:33:31.239Z,36.00
2022-10-19T11:34:02.561Z,34.00
2022-10-19T11:34:32.460Z,33.00
2022-10-19T11:35:03.332Z,35.00
2022-10-19T11:35:34.415Z,38.00
2022-10-19T11:36:04.876Z,41.00
2022-10-19T11:36:35.864Z,42.00
2022-10-19T11:37:06.852Z,42.00
2022-10-19T11:37:45.664Z,45.00
2022-10-19T11:38:20.334Z,48.00
2022-10-19T11:38:40.328Z,50.00
2022-10-19T11:39:10.227Z,53.00
2022-10-19T11:39:41.185Z,54.00
2022-10-19T11:40:12.128Z,49.00
2022-10-19T11:40:59.643Z,39.00
2022-10-19T11:41:18.871Z,29.00
2022-10-19T11:41:44.314Z,22.00
2022-10-19T11:42:15.254Z,20.00
2022-10-19T11:43:17.144Z,20.00
2022-10-19T11:43:48.238Z,21.00
2022-10-19T11:44:18.965Z,23.00
2022-10-19T11:44:49.457Z,26.00
2022-10-19T11:45:20.368Z,30.00
2022-10-19T11:45:51.253Z,33.00
2022-10-19T11:46:22.135Z,34.00
2022-10-19T11:46:53.322Z,34.00
2022-10-19T11:47:23.711Z,38.00
2022-10-19T11:47:54.615Z,36.00
2022-10-19T11:48:25.574Z,29.00
2022-10-19T11:48:56.528Z,21.00
2022-10-19T11:49:27.485Z,17.00
2022-10-19T11:49:58.682Z,16.00
2022-10-19T11:50:31.186Z,16.00
2022-10-19T11:51:16.995Z,15.00
2022-10-19T11:51:30.650Z,14.00
2022-10-19T11:52:01.546Z,16.00
2022-10-19T11:52:32.862Z,16.00
2022-10-19T11:53:03.175Z,14.00
2022-10-19T11:53:33.642Z,13.00
2022-10-19T11:54:04.558Z,12.00
2022-10-19T11:54:35.524Z,12.00
2022-10-19T11:55:06.394Z,12.00
2022-10-19T11:55:37.432Z,12.00
2022-10-19T11:56:08.078Z,13.00
2022-10-19T11:56:58.125Z,13.00
2022-10-19T11:57:11.643Z,14.00
2022-10-19T11:57:40.313Z,14.00
2022-10-19T11:58:11.405Z,13.00
2022-10-19T11:58:42.026Z,14.00
2022-10-19T11:59:43.173Z,15.00
2022-10-19T12:00:15.245Z,15.00
2022-10-19T12:00:45.058Z,15.00
2022-10-19T12:01:16.230Z,16.00
2022-10-19T12:01:46.737Z,16.00
2022-10-19T12:02:17.338Z,17.00
2022-10-19T12:02:47.836Z,18.00
2022-10-19T12:03:18.727Z,19.00
2022-10-19T12:03:49.676Z,21.00
2022-10-19T12:04:20.839Z,23.00
2022-10-19T12:04:53.220Z,24.00
2022-10-19T12:05:22.182Z,24.00
2022-10-19T12:05:53.162Z,23.00
2022-10-19T12:06:24.306Z,23.00
2022-10-19T12:06:54.766Z,21.00
2022-10-19T12:07:25.896Z,22.00
2022-10-19T12:07:56.367Z,22.00
2022-10-19T12:08:27.380Z,22.00
2022-10-19T12:08:57.992Z,23.00
2022-10-19T12:09:28.487Z,24.00
2022-10-19T12:09:59.447Z,25.00
2022-10-19T12:10:30.543Z,26.00
2022-10-19T12:11:01.043Z,27.00
2022-10-19T12:11:31.944Z,30.00
2022-10-19T12:12:03.027Z,30.00
2022-10-19T12:12:33.911Z,30.00
2022-10-19T12:13:04.184Z,30.00
2022-10-19T12:13:35.334Z,31.00
2022-10-19T12:14:06.040Z,33.00
2022-10-19T12:14:36.380Z,34.00
2022-10-19T12:15:07.242Z,39.00
2022-10-19T12:15:38.193Z,44.00
2022-10-19T12:16:09.041Z,49.00
2022-10-19T12:16:40.187Z,55.00
2022-10-19T12:17:10.709Z,60.00
2022-10-19T12:17:41.214Z,60.00
2022-10-19T12:18:12.131Z,60.00
2022-10-19T12:18:43.072Z,60.00
2022-10-19T12:19:13.958Z,61.00
2022-10-19T12:19:45.120Z,63.00
2022-10-19T12:20:18.895Z,62.00
2022-10-19T12:20:46.326Z,63.00
2022-10-19T12:21:17.311Z,66.00
2022-10-19T12:21:48.202Z,64.00
2022-10-19T12:22:19.168Z,63.00
2022-10-19T12:22:50.326Z,64.00
2022-10-19T12:23:20.736Z,64.00
2022-10-19T12:23:51.693Z,66.00
2022-10-19T12:24:22.673Z,66.00
2022-10-19T12:24:53.592Z,64.00
2022-10-19T12:25:24.562Z,64.00
2022-10-19T12:25:55.732Z,64.00
2022-10-19T12:26:26.231Z,60.00
2022-10-19T12:26:56.729Z,58.00
2022-10-19T12:27:27.717Z,56.00
2022-10-19T12:27:58.202Z,54.00
2022-10-19T12:28:29.242Z,52.00
2022-10-19T12:28:59.930Z,49.00
2022-10-19T12:29:30.398Z,45.00
2022-10-19T12:30:01.373Z,42.00
2022-10-19T12:30:32.332Z,39.00
2022-10-19T12:31:03.212Z,38.00
2022-10-19T12:31:34.189Z,34.00
2022-10-19T12:32:05.094Z,30.00
2022-10-19T12:32:35.584Z,28.00
2022-10-19T12:33:06.520Z,27.00
2022-10-19T12:33:37.479Z,28.00
2022-10-19T12:34:08.418Z,31.00
2022-10-19T12:34:39.295Z,35.00
2022-10-19T12:35:10.541Z,35.00
2022-10-19T12:35:41.032Z,34.00
2022-10-19T12:36:11.918Z,32.00
2022-10-19T12:36:42.844Z,33.00
2022-10-19T12:37:13.757Z,34.00
2022-10-19T12:37:44.718Z,34.00
2022-10-19T12:38:15.853Z,33.00
2022-10-19T12:38:49.377Z,34.00
2022-10-19T12:39:17.012Z,36.00
2022-10-19T12:39:47.996Z,37.00
2022-10-19T12:40:18.851Z,37.00
2022-10-19T12:40:49.820Z,39.00
2022-10-19T12:41:20.943Z,42.00
2022-10-19T12:41:51.403Z,45.00
2022-10-19T12:42:22.407Z,50.00
2022-10-19T12:42:52.868Z,53.00
2022-10-19T12:43:23.831Z,55.00
2022-10-19T12:43:54.691Z,55.00
2022-10-19T12:44:25.879Z,54.00
2022-10-19T12:44:58.668Z,53.00
2022-10-19T12:45:26.984Z,54.00
2022-10-19T12:45:57.950Z,54.00
2022-10-19T12:46:28.909Z,52.00
2022-10-19T12:47:00.855Z,51.00
2022-10-19T12:47:30.781Z,51.00
2022-10-19T12:48:01.232Z,54.00
2022-10-19T12:48:32.233Z,55.00
2022-10-19T12:49:03.131Z,56.00
2022-10-19T12:50:15.288Z,56.00
2022-10-19T12:50:45.737Z,56.00
2022-10-19T12:51:16.258Z,56.00
2022-10-19T12:51:46.851Z,56.00
2022-10-19T12:52:17.309Z,55.00
2022-10-19T12:52:48.542Z,54.00
2022-10-19T12:53:19.382Z,54.00
2022-10-19T12:53:49.950Z,54.00
2022-10-19T12:54:20.900Z,56.00
2022-10-19T12:54:51.842Z,58.00
2022-10-19T12:55:22.788Z,59.00
2022-10-19T12:55:53.745Z,60.00
2022-10-19T12:56:24.856Z,60.00
2022-10-19T12:56:55.311Z,57.00
2022-10-19T12:57:26.466Z,55.00
2022-10-19T12:57:56.930Z,56.00
2022-10-19T12:58:27.887Z,55.00
2022-10-19T12:58:58.865Z,53.00
2022-10-19T12:59:30.035Z,53.00
2022-10-19T13:00:00.489Z,53.00
2022-10-19T13:00:31.512Z,53.00
2022-10-19T13:01:02.146Z,55.00
2022-10-19T13:01:32.943Z,57.00
2022-10-19T13:02:03.399Z,57.00
2022-10-19T13:02:34.552Z,57.00
2022-10-19T13:03:05.008Z,58.00
2022-10-19T13:03:35.969Z,59.00
2022-10-19T13:04:07.050Z,59.00
2022-10-19T13:04:37.573Z,59.00
2022-10-19T13:05:08.050Z,59.00
2022-10-19T13:05:39.104Z,60.00
2022-10-19T13:06:09.563Z,60.00
2022-10-19T13:06:40.459Z,59.00
2022-10-19T13:07:11.417Z,59.00
2022-10-19T13:07:42.442Z,61.00
2022-10-19T13:08:14.553Z,62.00
2022-10-19T13:08:44.045Z,65.00
2022-10-19T13:09:14.561Z,67.00
2022-10-19T13:09:45.525Z,71.00
2022-10-19T13:10:16.429Z,75.00
2022-10-19T13:10:47.368Z,78.00
2022-10-19T13:11:18.256Z,79.00
2022-10-19T13:11:49.393Z,80.00
2022-10-19T13:12:33.046Z,81.00
2022-10-19T13:12:51.801Z,81.00
2022-10-19T13:13:21.681Z,80.00
2022-10-19T13:13:52.564Z,81.00
2022-10-19T13:14:23.726Z,78.00
2022-10-19T13:14:54.188Z,71.00
2022-10-19T13:15:25.090Z,63.00
2022-10-19T13:15:56.028Z,55.00
2022-10-19T13:16:26.978Z,52.00
2022-10-19T13:16:57.987Z,52.00
2022-10-19T13:17:33.149Z,52.00
2022-10-19T13:18:00.109Z,53.00
2022-10-19T13:18:29.491Z,55.00
2022-10-19T13:19:00.466Z,56.00
2022-10-19T13:19:31.425Z,55.00
2022-10-19T13:20:02.381Z,55.00
2022-10-19T13:20:33.580Z,57.00
2022-10-19T13:21:03.991Z,59.00
2022-10-19T13:21:34.954Z,61.00
2022-10-19T13:22:05.942Z,62.00
2022-10-19T13:22:37.342Z,63.00
2022-10-19T13:23:07.455Z,62.00
2022-10-19T13:23:38.557Z,60.00
2022-10-19T13:24:08.982Z,58.00
2022-10-19T13:25:10.885Z,63.00
2022-10-19T13:25:41.907Z,69.00
2022-10-19T13:26:12.865Z,76.00
2022-10-19T13:26:43.997Z,77.00
2022-10-19T13:27:14.506Z,77.00
2022-10-19T13:27:44.947Z,72.00
2022-10-19T13:28:15.853Z,68.00
2022-10-19T13:28:46.794Z,68.00
2022-10-19T13:29:17.907Z,72.00
2022-10-19T13:29:48.583Z,73.00
2022-10-19T13:30:19.122Z,70.00
2022-10-19T13:30:49.774Z,67.00
2022-10-19T13:31:20.268Z,67.00
2022-10-19T13:31:51.228Z,66.00
2022-10-19T13:32:22.104Z,63.00
2022-10-19T13:32:53.261Z,61.00
2022-10-19T13:33:23.774Z,58.00
2022-10-19T13:33:54.632Z,53.00
2022-10-19T13:34:25.635Z,50.00
2022-10-19T13:34:56.628Z,49.00
2022-10-19T13:35:27.516Z,50.00
2022-10-19T13:35:58.591Z,54.00
2022-10-19T13:36:29.053Z,58.00
2022-10-19T13:37:00.267Z,63.00
2022-10-19T13:37:34.588Z,65.00
2022-10-19T13:38:01.286Z,64.00
2022-10-19T13:38:32.316Z,64.00
2022-10-19T13:39:03.120Z,62.00
2022-10-19T13:39:33.602Z,62.00
2022-10-19T13:40:04.518Z,62.00
2022-10-19T13:40:35.417Z,62.00
2022-10-19T13:41:06.470Z,63.00
2022-10-19T13:41:36.940Z,65.00
2022-10-19T13:42:08.032Z,68.00
2022-10-19T13:42:38.770Z,71.00
2022-10-19T13:43:09.286Z,73.00
2022-10-19T13:43:40.462Z,74.00
2022-10-19T13:44:10.938Z,76.00
2022-10-19T13:44:41.948Z,77.00
2022-10-19T13:45:13.254Z,78.00
2022-10-19T13:45:44.772Z,78.00
2022-10-19T13:46:14.053Z,79.00
2022-10-19T13:46:45.042Z,78.00
2022-10-19T13:47:15.548Z,78.00
2022-10-19T13:47:46.620Z,77.00
2022-10-19T13:48:17.341Z,75.00
2022-10-19T13:48:47.781Z,74.00
2022-10-19T13:49:18.901Z,72.00
2022-10-19T13:49:49.406Z,68.00
2022-10-19T13:50:20.357Z,65.00
2022-10-19T13:50:51.247Z,64.00
2022-10-19T13:51:22.323Z,62.00
2022-10-19T13:51:52.805Z,59.00
2022-10-19T13:52:23.716Z,57.00
2022-10-19T13:52:54.608Z,55.00
2022-10-19T13:53:25.745Z,54.00
2022-10-19T13:53:56.205Z,54.00
2022-10-19T13:54:27.346Z,53.00
2022-10-19T13:54:57.853Z,53.00
2022-10-19T13:55:28.338Z,52.00
2022-10-19T13:55:59.301Z,52.00
2022-10-19T13:56:30.310Z,55.00
2022-10-19T13:57:00.905Z,55.00
2022-10-19T13:57:31.874Z,55.00
2022-10-19T13:58:02.821Z,56.00
2022-10-19T13:58:33.732Z,57.00
2022-10-19T13:59:03.703Z,58.00
2022-10-19T13:59:34.640Z,57.00
2022-10-19T14:00:05.675Z,57.00
2022-10-19T14:00:36.518Z,58.00
2022-10-19T14:01:06.907Z,59.00
2022-10-19T14:01:37.938Z,60.00
2022-10-19T14:02:08.390Z,61.00
2022-10-19T14:02:39.287Z,63.00
2022-10-19T14:03:11.757Z,61.00
2022-10-19T14:03:41.271Z,59.00
2022-10-19T14:04:11.717Z,57.00
2022-10-19T14:04:42.694Z,54.00
2022-10-19T14:05:13.691Z,53.00
2022-10-19T14:05:44.563Z,50.00
2022-10-19T14:06:15.517Z,50.00
2022-10-19T14:06:46.643Z,49.00
2022-10-19T14:07:17.093Z,48.00
2022-10-19T14:07:47.989Z,46.00
2022-10-19T14:08:19.143Z,46.00
2022-10-19T14:08:49.717Z,49.00
2022-10-19T14:09:20.481Z,50.00
2022-10-19T14:09:51.634Z,50.00
2022-10-19T14:10:25.161Z,52.00
2022-10-19T14:11:01.500Z,52.00
2022-10-19T14:11:25.083Z,54.00
2022-10-19T14:11:54.706Z,54.00
2022-10-19T14:12:25.172Z,54.00
2022-10-19T14:12:56.166Z,53.00
2022-10-19T14:13:26.653Z,51.00
2022-10-19T14:13:57.658Z,52.00
2022-10-19T14:14:28.108Z,53.00
2022-10-19T14:14:59.252Z,51.00
2022-10-19T14:15:29.723Z,51.00
2022-10-19T14:16:00.709Z,50.00
2022-10-19T14:16:31.178Z,50.00
2022-10-19T14:17:03.951Z,50.00
2022-10-19T14:17:33.568Z,52.00
2022-10-19T14:18:06.024Z,52.00
2022-10-19T14:18:34.217Z,54.00
2022-10-19T14:19:05.213Z,55.00
2022-10-19T14:19:35.649Z,54.00
2022-10-19T14:20:06.500Z,54.00
2022-10-19T14:20:37.547Z,54.00
2022-10-19T14:21:08.149Z,53.00
2022-10-19T14:21:38.595Z,52.00
2022-10-19T14:22:09.573Z,51.00
2022-10-19T14:22:40.650Z,51.00
2022-10-19T14:23:11.180Z,51.00
2022-10-19T14:23:42.344Z,51.00
2022-10-19T14:24:12.861Z,49.00
2022-10-19T14:24:43.782Z,47.00
2022-10-19T14:25:14.765Z,45.00
2022-10-19T14:25:45.713Z,44.00
2022-10-19T14:26:16.613Z,44.00
2022-10-19T14:26:47.745Z,45.00
2022-10-19T14:27:18.220Z,46.00
2022-10-19T14:27:49.149Z,47.00
2022-10-19T14:28:20.060Z,46.00
2022-10-19T14:28:50.975Z,45.00
2022-10-19T14:29:21.866Z,42.00
2022-10-19T14:29:53.073Z,41.00
2022-10-19T14:30:23.574Z,42.00
2022-10-19T14:30:54.010Z,43.00
2022-10-19T14:31:24.994Z,44.00
2022-10-19T14:31:55.935Z,44.00
2022-10-19T14:32:26.978Z,46.00
2022-10-19T14:33:01.222Z,46.00
2022-10-19T14:33:27.978Z,46.00
2022-10-19T14:33:58.837Z,45.00
2022-10-19T14:34:29.770Z,45.00
2022-10-19T14:35:00.934Z,43.00
2022-10-19T14:35:31.422Z,41.00
2022-10-19T14:36:02.550Z,41.00
2022-10-19T14:36:33.029Z,40.00
2022-10-19T14:37:05.942Z,41.00
2022-10-19T14:37:35.134Z,44.00
2022-10-19T14:38:05.814Z,48.00
2022-10-19T14:38:36.795Z,49.00
2022-10-19T14:39:07.867Z,46.00
2022-10-19T14:39:38.338Z,46.00
2022-10-19T14:40:09.250Z,46.00
2022-10-19T14:40:40.215Z,45.00
2022-10-19T14:41:11.121Z,49.00
2022-10-19T14:41:41.999Z,48.00
2022-10-19T14:42:13.137Z,47.00
2022-10-19T14:42:43.630Z,49.00
2022-10-19T14:43:14.094Z,49.00
2022-10-19T14:43:45.093Z,50.00
2022-10-19T14:44:15.576Z,53.00
2022-10-19T14:44:46.444Z,61.00
2022-10-19T14:45:17.599Z,59.00
2022-10-19T14:45:48.058Z,50.00
2022-10-19T14:46:18.970Z,53.00
2022-10-19T14:46:49.919Z,60.00
2022-10-19T14:47:20.816Z,59.00
2022-10-19T14:47:51.799Z,56.00
2022-10-19T14:48:22.866Z,48.00
2022-10-19T14:48:53.332Z,37.00
2022-10-19T14:49:24.215Z,31.00
2022-10-19T14:49:55.203Z,27.00
2022-10-19T14:50:26.212Z,25.00
2022-10-19T14:50:56.689Z,24.00
2022-10-19T14:51:27.849Z,23.00
2022-10-19T14:51:58.276Z,22.00
2022-10-19T14:52:29.204Z,20.00
2022-10-19T14:53:00.156Z,19.00
2022-10-19T14:53:31.124Z,19.00
2022-10-19T14:54:02.097Z,18.00
2022-10-19T14:54:33.244Z,17.00
2022-10-19T14:55:03.749Z,17.00
2022-10-19T14:55:34.659Z,17.00
2022-10-19T14:56:05.662Z,16.00
2022-10-19T14:56:36.629Z,16.00
2022-10-19T14:57:07.490Z,16.00
2022-10-19T14:57:38.647Z,16.00
2022-10-19T14:58:09.104Z,17.00
2022-10-19T14:58:40.057Z,17.00
2022-10-19T14:59:11.270Z,17.00
2022-10-19T15:00:12.728Z,17.00
2022-10-19T15:00:43.417Z,18.00
2022-10-19T15:01:13.929Z,17.00
2022-10-19T15:01:44.497Z,17.00
2022-10-19T15:02:15.011Z,17.00
2022-10-19T15:02:45.981Z,17.00
2022-10-19T15:03:16.877Z,18.00
2022-10-19T15:03:48.070Z,18.00
2022-10-19T15:04:18.540Z,18.00
2022-10-19T15:04:49.435Z,19.00
2022-10-19T15:05:20.395Z,37.00
2022-10-19T15:05:51.350Z,32.00
2022-10-19T15:06:22.297Z,25.00
2022-10-19T15:06:53.552Z,21.00
2022-10-19T15:07:24.131Z,18.00
2022-10-19T15:07:55.053Z,18.00
2022-10-19T15:08:26.021Z,19.00
2022-10-19T15:08:56.548Z,20.00
2022-10-19T15:09:37.507Z,19.00
2022-10-19T15:09:58.416Z,16.00
2022-10-19T15:10:32.333Z,16.00
2022-10-19T15:10:59.750Z,16.00
2022-10-19T15:11:30.702Z,18.00
2022-10-19T15:12:01.909Z,20.00
2022-10-19T15:12:32.443Z,18.00
2022-10-19T15:13:03.189Z,19.00
2022-10-19T15:13:34.014Z,22.00
2022-10-19T15:14:04.905Z,24.00
2022-10-19T15:14:35.780Z,22.00
2022-10-19T15:15:06.995Z,21.00
2022-10-19T15:15:37.490Z,22.00
2022-10-19T15:16:08.385Z,23.00
2022-10-19T15:16:39.437Z,22.00
2022-10-19T15:17:09.907Z,21.00
2022-10-19T15:17:40.851Z,20.00
2022-10-19T15:18:25.071Z,20.00
2022-10-19T15:18:49.238Z,20.00
2022-10-19T15:19:13.219Z,20.00
2022-10-19T15:19:44.132Z,21.00
2022-10-19T15:20:17.024Z,23.00
2022-10-19T15:20:55.195Z,27.00
2022-10-19T15:21:17.628Z,29.00
2022-10-19T15:21:47.045Z,32.00
2022-10-19T15:22:18.069Z,33.00
2022-10-19T15:22:49.050Z,35.00
2022-10-19T15:23:20.197Z,35.00
2022-10-19T15:23:50.662Z,35.00
2022-10-19T15:24:21.582Z,35.00
2022-10-19T15:24:52.467Z,36.00
2022-10-19T15:25:23.378Z,34.00
2022-10-19T15:25:54.409Z,32.00
2022-10-19T15:26:25.064Z,29.00
2022-10-19T15:27:08.696Z,28.00
2022-10-19T15:27:27.451Z,27.00
2022-10-19T15:27:57.402Z,24.00
2022-10-19T15:28:28.287Z,23.00
2022-10-19T15:28:59.427Z,22.00
2022-10-19T15:29:29.882Z,21.00
2022-10-19T15:30:00.842Z,20.00
2022-10-19T15:30:31.419Z,19.00
2022-10-19T15:31:01.894Z,18.00
2022-10-19T15:31:32.788Z,17.00
2022-10-19T15:32:03.921Z,15.00
2022-10-19T15:32:34.771Z,13.00
2022-10-19T15:33:04.879Z,12.00
2022-10-19T15:33:35.846Z,12.00
2022-10-19T15:34:06.800Z,11.00
2022-10-19T15:34:37.717Z,11.00
2022-10-19T15:35:11.935Z,11.00
2022-10-19T15:35:39.569Z,11.00
2022-10-19T15:36:10.588Z,11.00
2022-10-19T15:36:41.157Z,10.00
2022-10-19T15:37:12.931Z,9.00
2022-10-19T15:37:42.457Z,9.00
2022-10-19T15:38:13.520Z,9.00
2022-10-19T15:38:43.986Z,9.00
2022-10-19T15:39:24.606Z,10.00
2022-10-19T15:39:47.055Z,10.00
2022-10-19T15:40:16.496Z,11.00
2022-10-19T15:40:47.596Z,12.00
2022-10-19T15:41:18.053Z,13.00
2022-10-19T15:41:49.007Z,13.00
2022-10-19T15:42:19.879Z,13.00
2022-10-19T15:42:50.840Z,14.00
2022-10-19T15:43:21.797Z,13.00
2022-10-19T15:43:52.870Z,13.00
2022-10-19T15:44:23.311Z,12.00
2022-10-19T15:44:54.263Z,11.00
2022-10-19T15:45:25.154Z,10.00
2022-10-19T15:45:56.074Z,9.00
2022-10-19T15:46:27.086Z,9.00
2022-10-19T15:46:57.737Z,8.00
2022-10-19T15:47:28.204Z,9.00
2022-10-19T15:47:59.136Z,9.00
2022-10-19T15:48:30.102Z,8.00
2022-10-19T15:49:01.062Z,10.00
2022-10-19T15:49:32.009Z,9.00
2022-10-19T15:50:03.175Z,8.00
2022-10-19T15:50:33.634Z,8.00
2022-10-19T15:51:04.581Z,8.00
2022-10-19T15:51:35.063Z,7.00
2022-10-19T15:52:06.007Z,7.00
2022-10-19T15:52:36.880Z,7.00
2022-10-19T15:53:08.069Z,7.00
2022-10-19T15:53:38.514Z,6.00
2022-10-19T15:54:09.474Z,6.00
2022-10-19T15:54:40.369Z,5.00
2022-10-19T15:55:11.327Z,6.00
2022-10-19T15:55:42.282Z,6.00
2022-10-19T15:56:15.064Z,6.00
2022-10-19T15:56:43.934Z,5.00
2022-10-19T15:57:14.894Z,5.00
2022-10-19T15:57:45.861Z,5.00
2022-10-19T15:58:16.764Z,5.00
2022-10-19T15:58:47.645Z,5.00
2022-10-19T15:59:18.841Z,5.00
2022-10-19T15:59:49.311Z,5.00
2022-10-19T16:00:20.302Z,5.00
2022-10-19T16:00:51.287Z,4.00
2022-10-19T16:01:22.238Z,5.00
2022-10-19T16:01:56.119Z,5.00
2022-10-19T16:02:25.823Z,4.00
2022-10-19T16:02:54.835Z,3.00
2022-10-19T16:03:25.796Z,4.00
2022-10-19T16:03:56.761Z,3.00
2022-10-19T16:04:27.742Z,3.00
2022-10-19T16:04:58.756Z,3.00
2022-10-19T16:05:29.428Z,3.00
2022-10-19T16:05:59.922Z,3.00
2022-10-19T16:06:30.805Z,3.00
2022-10-19T16:07:01.731Z,3.00
2022-10-19T16:07:32.899Z,2.00
2022-10-19T16:08:03.263Z,2.00
2022-10-19T16:08:34.419Z,2.00
2022-10-19T16:09:05.312Z,2.00
2022-10-19T16:09:36.013Z,2.00
2022-10-19T16:10:06.877Z,2.00
2022-10-19T16:10:37.737Z,1.00
2022-10-19T16:11:08.724Z,1.00
2022-10-19T16:11:39.800Z,1.00
2022-10-19T16:12:10.249Z,1.00
2022-10-19T16:12:41.213Z,1.00
2022-10-19T16:13:12.185Z,1.00
2022-10-19T16:13:43.063Z,1.00
2022-10-19T16:14:14.104Z,1.00
2022-10-19T16:14:44.769Z,1.00
2022-10-19T16:15:15.232Z,1.00
2022-10-19T16:15:50.022Z,1.00
2022-10-19T16:16:18.296Z,1.00
2022-10-19T16:16:47.773Z,1.00
2022-10-19T16:17:18.748Z,1.00
2022-10-19T16:17:49.876Z,1.00
2022-10-19T16:18:20.353Z,1.00
2022-10-19T16:18:51.328Z,1.00
2022-10-19T16:19:22.393Z,1.00
2022-10-19T16:19:52.928Z,0.00
2022-10-19T16:20:23.529Z,0.00
2022-10-19T16:20:54.145Z,0.00
2022-10-19T16:21:24.639Z,2.00
2022-10-19T16:21:55.596Z,2.00
2022-10-19T16:22:26.555Z,2.00
2022-10-19T16:22:57.532Z,0.00
2022-10-19T16:23:28.280Z,0.00
2022-10-19T16:23:58.814Z,0.00
2022-10-19T16:24:29.244Z,0.00
2022-10-19T16:25:00.257Z,0.00
2022-10-19T16:25:30.700Z,0.00
2022-10-19T16:26:01.708Z,0.00
2022-10-19T16:26:32.407Z,0.00
2022-10-19T16:27:02.910Z,0.00
2022-10-19T16:27:34.175Z,0.00
2022-10-19T16:28:04.799Z,0.00
2022-10-19T16:28:35.762Z,0.00
2022-10-19T16:29:06.779Z,0.00
2022-10-19T16:29:37.911Z,0.00
2022-10-19T16:30:08.444Z,0.00
2022-10-19T16:30:38.943Z,0.00
2022-10-19T16:31:09.493Z,0.00
2022-10-19T16:31:40.204Z,0.00
2022-10-19T16:32:10.712Z,0.00
2022-10-19T16:33:11.797Z,0.00
2022-10-19T16:33:42.336Z,0.00
2022-10-19T16:34:13.113Z,0.00
2022-10-19T16:34:44.127Z,0.00
2022-10-19T16:35:14.545Z,0.00
2022-10-19T16:35:45.692Z,1.00
2022-10-19T16:36:16.154Z,1.00
2022-10-19T16:36:47.146Z,0.00
2022-10-19T16:37:18.101Z,0.00
2022-10-19T16:37:49.050Z,0.00
2022-10-19T16:38:20.074Z,0.00
2022-10-19T16:38:50.825Z,0.00
2022-10-19T16:39:21.367Z,0.00
2022-10-19T16:39:51.892Z,0.00
2022-10-19T16:40:22.407Z,0.00
2022-10-19T16:40:53.341Z,0.00
2022-10-19T16:41:24.282Z,0.00
2022-10-19T16:41:55.501Z,0.00
2022-10-19T16:42:29.626Z,0.00
2022-10-19T16:42:56.619Z,0.00
2022-10-19T16:43:27.138Z,0.00
2022-10-19T16:43:57.947Z,0.00
2022-10-19T16:44:28.481Z,0.00
2022-10-19T16:44:59.161Z,0.00
2022-10-19T16:45:29.700Z,0.00
2022-10-19T16:46:00.219Z,0.00
2022-10-19T16:46:31.175Z,0.00
2022-10-19T16:47:02.142Z,0.00
2022-10-19T16:47:32.704Z,0.00
2022-10-19T16:48:03.390Z,0.00
2022-10-19T16:48:33.906Z,0.00
2022-10-19T16:49:04.376Z,0.00
2022-10-19T16:49:35.324Z,0.00
2022-10-19T16:50:06.354Z,0.00
2022-10-19T16:50:36.841Z,0.00
2022-10-19T16:51:07.606Z,0.00
2022-10-19T16:51:38.133Z,0.00
2022-10-19T16:52:08.655Z,0.00
2022-10-19T16:52:39.335Z,0.00
2022-10-19T16:53:09.901Z,0.00
2022-10-19T16:53:41.022Z,0.00
2022-10-19T16:54:11.674Z,0.00
2022-10-19T16:54:42.142Z,0.00
2022-10-19T16:55:13.055Z,0.00
2022-10-19T16:55:44.078Z,0.00
2022-10-19T16:56:14.595Z,0.00
2022-10-19T16:56:45.119Z,0.00
2022-10-19T16:57:15.734Z,0.00
2022-10-19T16:57:46.303Z,0.00
2022-10-19T16:58:16.805Z,0.00
2022-10-19T16:58:47.317Z,0.00
2022-10-19T16:59:18.286Z,0.00
2022-10-19T16:59:49.397Z,0.00
2022-10-19T17:00:20.054Z,0.00
2022-10-19T17:00:50.548Z,0.00
2022-10-19T17:01:21.638Z,0.00
2022-10-19T17:01:52.254Z,0.00
2022-10-19T17:02:22.819Z,0.00
2022-10-19T17:02:53.310Z,0.00
2022-10-19T17:03:24.038Z,0.00
2022-10-19T17:03:54.597Z,0.00
2022-10-19T17:04:25.092Z,0.00
2022-10-19T17:04:56.042Z,0.00
2022-10-19T17:05:27.031Z,0.00
2022-10-19T17:05:57.998Z,0.00
2022-10-19T17:06:29.151Z,0.00
2022-10-19T17:06:59.676Z,0.00
2022-10-19T17:07:30.284Z,0.00
2022-10-19T17:08:00.811Z,0.00
2022-10-19T17:08:37.015Z,0.00
2022-10-19T17:09:41.744Z,0.00
2022-10-19T17:10:04.610Z,0.00
2022-10-19T17:10:34.192Z,0.00
2022-10-19T17:11:04.636Z,0.00
2022-10-19T17:11:35.758Z,0.00
2022-10-19T17:12:06.262Z,0.00
2022-10-19T17:12:37.191Z,0.00
2022-10-19T17:13:07.377Z,0.00
2022-10-19T17:13:38.382Z,0.00
2022-10-19T17:14:10.673Z,0.00
2022-10-19T17:14:39.901Z,0.00
2022-10-19T17:15:43.584Z,0.00
2022-10-19T17:16:11.801Z,0.00
2022-10-19T17:16:42.792Z,0.00
2022-10-19T17:17:13.792Z,0.00
2022-10-19T17:17:44.911Z,0.00
2022-10-19T17:18:15.452Z,0.00
2022-10-19T17:18:45.855Z,0.00
2022-10-19T17:19:16.913Z,0.00
2022-10-19T17:19:47.406Z,0.00
2022-10-19T17:20:18.755Z,0.00
2022-10-19T17:20:48.974Z,0.00
2022-10-19T17:21:19.698Z,0.00
2022-10-19T17:21:50.201Z,0.00
2022-10-19T17:22:21.306Z,0.00
2022-10-19T17:22:51.365Z,0.00
2022-10-19T17:23:21.794Z,0.00
2022-10-19T17:23:53.272Z,0.00
2022-10-19T17:24:23.302Z,0.00
2022-10-19T17:24:53.842Z,0.00
2022-10-19T17:25:24.299Z,0.00
2022-10-19T17:25:55.322Z,0.00
2022-10-19T17:26:25.840Z,0.00
2022-10-19T17:26:56.541Z,0.00
2022-10-19T17:27:57.572Z,0.00
2022-10-19T17:28:28.006Z,0.00
2022-10-19T17:28:58.935Z,0.00
2022-10-19T17:29:29.909Z,0.00
2022-10-19T17:30:01.080Z,0.00
2022-10-19T17:30:31.591Z,0.00
2022-10-19T17:31:02.109Z,0.00
2022-10-19T17:31:32.715Z,0.00
2022-10-19T17:32:03.313Z,0.00
2022-10-19T17:32:34.156Z,0.00
2022-10-19T17:33:04.526Z,0.00
2022-10-19T17:33:35.032Z,0.00
2022-10-19T17:34:05.550Z,0.00
2022-10-19T17:34:36.096Z,0.00
2022-10-19T17:35:06.597Z,0.00
2022-10-19T17:35:37.104Z,0.00
2022-10-19T17:36:08.229Z,0.00
2022-10-19T17:37:09.674Z,0.00
2022-10-19T17:37:40.693Z,0.00
2022-10-19T17:38:11.149Z,0.00
2022-10-19T17:38:42.120Z,0.00
2022-10-19T17:39:13.351Z,0.00
2022-10-19T17:39:43.821Z,0.00
2022-10-19T17:40:14.752Z,0.00
2022-10-19T17:40:45.712Z,0.00
2022-10-19T17:41:16.654Z,0.00
2022-10-19T17:41:47.632Z,0.00
2022-10-19T17:42:18.843Z,0.00
2022-10-19T17:42:49.341Z,0.00
2022-10-19T17:43:19.845Z,0.00
2022-10-19T17:43:50.377Z,0.00
2022-10-19T17:44:20.802Z,0.00
2022-10-19T17:44:51.755Z,0.00
2022-10-19T17:45:22.962Z,0.00
2022-10-19T17:45:53.472Z,0.00
2022-10-19T17:46:23.990Z,0.00
2022-10-19T17:46:54.504Z,0.00
2022-10-19T17:47:25.017Z,0.00
2022-10-19T17:47:55.459Z,0.00
2022-10-19T17:48:26.661Z,0.00
2022-10-19T17:48:57.165Z,0.00
2022-10-19T17:49:28.097Z,0.00
2022-10-19T17:49:59.101Z,0.00
2022-10-19T17:50:29.529Z,0.00
2022-10-19T17:51:00.471Z,0.00
2022-10-19T17:51:31.680Z,0.00
2022-10-19T17:52:02.197Z,0.00
2022-10-19T17:52:32.720Z,0.00
2022-10-19T17:53:03.125Z,0.00
2022-10-19T17:53:34.163Z,0.00
2022-10-19T17:54:04.570Z,0.00
2022-10-19T17:54:43.607Z,0.00
2022-10-19T17:55:13.798Z,0.00
2022-10-19T17:55:37.284Z,0.00
2022-10-19T17:56:07.821Z,0.00
2022-10-19T17:56:38.584Z,0.00
2022-10-19T17:57:09.109Z,0.00
2022-10-19T17:57:39.623Z,0.00
2022-10-19T17:58:10.129Z,0.00
2022-10-19T17:58:41.093Z,0.00
2022-10-19T17:59:12.024Z,0.00
2022-10-19T17:59:52.483Z,0.00
2022-10-19T18:00:15.014Z,0.00
2022-10-19T18:00:44.559Z,0.00
2022-10-19T18:01:15.182Z,0.00
2022-10-19T18:01:45.735Z,0.00
2022-10-19T18:02:16.443Z,0.00
2022-10-19T18:02:47.104Z,0.00
2022-10-19T18:03:17.649Z,0.00
2022-10-19T18:03:48.094Z,0.00
2022-10-19T18:04:19.111Z,0.00
2022-10-19T18:04:49.609Z,0.00
2022-10-19T18:05:20.295Z,0.00
2022-10-19T18:05:50.798Z,0.00
2022-10-19T18:06:21.729Z,0.00
2022-10-19T18:06:52.690Z,0.00
2022-10-19T18:07:23.870Z,0.00
2022-10-19T18:07:54.390Z,0.00
2022-10-19T18:08:25.167Z,0.00
2022-10-19T18:08:55.794Z,0.00
2022-10-19T18:09:26.308Z,0.00
2022-10-19T18:09:57.355Z,0.00
2022-10-19T18:10:27.874Z,0.00
2022-10-19T18:10:58.378Z,0.00
2022-10-19T18:11:29.140Z,0.00
2022-10-19T18:12:03.472Z,0.00
2022-10-19T18:12:31.732Z,0.00
2022-10-19T18:13:01.219Z,0.00
2022-10-19T18:13:32.035Z,0.00
2022-10-19T18:14:02.793Z,0.00
2022-10-19T18:14:33.282Z,0.00
2022-10-19T18:15:03.811Z,0.00
2022-10-19T18:15:34.285Z,0.00
2022-10-19T18:16:05.317Z,0.00
2022-10-19T18:16:35.723Z,0.00
2022-10-19T18:17:06.990Z,0.00
2022-10-19T18:17:37.865Z,0.00
2022-10-19T18:18:08.274Z,0.00